Terminal Aerodrome Forecast
Issued by NWS

Home | Current Version | Previous Version | Text Only | Print | Product List | Glossary On
Versions: 1 2 3 4 5 6 7 8 9 10 11 12 13 14 15 16 17 18 19 20 21 22 23 24 25 26 27 28
000
FTUS43 KDTX 291455 AAA
TAFYIP
TAF AMD
KYIP 291455Z 2915/3012 16007KT P6SM BKN040 OVC060
     FM291600 21010KT 4SM -SHRA BR SCT018 OVC028
     FM292000 29012G18KT 3SM -SHSN BR BKN009 OVC022
     FM292300 30013G20KT 6SM -SN BKN025 OVC040
     FM300300 31015G24KT P6SM SCT025 OVC040=

USA.gov is the U.S. government's official web portal to all federal, state and local government web resources and services.